sensor_id;sensor_type;location;lat;lon;timestamp;P1;durP1;ratioP1;P2;durP2;ratioP2
75550;SDS011;65071;53.082;18.218;2024-01-30T00:00:58;62.80;;;20.80;;
75550;SDS011;65071;53.082;18.218;2024-01-30T00:03:45;49.90;;;20.40;;
75550;SDS011;65071;53.082;18.218;2024-01-30T00:06:11;45.60;;;17.00;;
75550;SDS011;65071;53.082;18.218;2024-01-30T00:08:38;44.50;;;17.90;;
75550;SDS011;65071;53.082;18.218;2024-01-30T00:11:07;41.50;;;16.70;;
75550;SDS011;65071;53.082;18.218;2024-01-30T00:13:33;47.20;;;20.30;;
75550;SDS011;65071;53.082;18.218;2024-01-30T00:16:00;53.50;;;22.80;;
75550;SDS011;65071;53.082;18.218;2024-01-30T00:18:27;50.00;;;22.80;;
75550;SDS011;65071;53.082;18.218;2024-01-30T00:20:53;49.00;;;22.10;;
75550;SDS011;65071;53.082;18.218;2024-01-30T00:23:20;51.90;;;22.50;;
75550;SDS011;65071;53.082;18.218;2024-01-30T00:25:46;48.10;;;19.90;;
75550;SDS011;65071;53.082;18.218;2024-01-30T00:28:13;39.40;;;16.00;;
75550;SDS011;65071;53.082;18.218;2024-01-30T00:30:40;47.60;;;20.80;;
75550;SDS011;65071;53.082;18.218;2024-01-30T00:33:08;40.70;;;17.20;;
75550;SDS011;65071;53.082;18.218;2024-01-30T00:35:35;39.20;;;17.10;;
75550;SDS011;65071;53.082;18.218;2024-01-30T00:38:02;41.70;;;17.30;;
75550;SDS011;65071;53.082;18.218;2024-01-30T00:40:29;41.20;;;17.10;;
75550;SDS011;65071;53.082;18.218;2024-01-30T00:42:56;42.10;;;15.80;;
75550;SDS011;65071;53.082;18.218;2024-01-30T00:45:22;42.90;;;18.60;;
75550;SDS011;65071;53.082;18.218;2024-01-30T00:47:49;42.90;;;17.40;;
75550;SDS011;65071;53.082;18.218;2024-01-30T00:50:16;41.50;;;17.70;;
75550;SDS011;65071;53.082;18.218;2024-01-30T00:52:43;38.40;;;15.90;;
75550;SDS011;65071;53.082;18.218;2024-01-30T00:55:11;51.40;;;18.40;;
75550;SDS011;65071;53.082;18.218;2024-01-30T00:57:38;63.40;;;21.30;;
75550;SDS011;65071;53.082;18.218;2024-01-30T01:00:04;60.90;;;22.20;;
75550;SDS011;65071;53.082;18.218;2024-01-30T01:02:32;54.20;;;18.80;;
75550;SDS011;65071;53.082;18.218;2024-01-30T01:05:00;58.40;;;20.50;;
75550;SDS011;65071;53.082;18.218;2024-01-30T01:07:27;39.10;;;17.60;;
75550;SDS011;65071;53.082;18.218;2024-01-30T01:09:53;42.30;;;16.70;;
75550;SDS011;65071;53.082;18.218;2024-01-30T01:12:20;37.80;;;17.00;;
75550;SDS011;65071;53.082;18.218;2024-01-30T01:14:47;41.70;;;16.20;;
75550;SDS011;65071;53.082;18.218;2024-01-30T01:17:13;45.20;;;17.40;;
75550;SDS011;65071;53.082;18.218;2024-01-30T01:19:40;35.30;;;14.90;;
75550;SDS011;65071;53.082;18.218;2024-01-30T01:22:06;43.10;;;16.60;;
75550;SDS011;65071;53.082;18.218;2024-01-30T01:24:33;44.50;;;16.70;;
75550;SDS011;65071;53.082;18.218;2024-01-30T01:27:00;36.30;;;16.10;;
75550;SDS011;65071;53.082;18.218;2024-01-30T01:29:27;40.90;;;16.20;;
75550;SDS011;65071;53.082;18.218;2024-01-30T01:31:55;37.20;;;15.40;;
75550;SDS011;65071;53.082;18.218;2024-01-30T01:34:22;41.30;;;16.10;;
75550;SDS011;65071;53.082;18.218;2024-01-30T01:36:50;41.90;;;16.60;;
75550;SDS011;65071;53.082;18.218;2024-01-30T01:39:17;37.10;;;15.30;;
75550;SDS011;65071;53.082;18.218;2024-01-30T01:41:43;34.00;;;14.30;;
75550;SDS011;65071;53.082;18.218;2024-01-30T01:44:10;34.60;;;14.00;;
75550;SDS011;65071;53.082;18.218;2024-01-30T01:46:37;33.40;;;14.10;;
75550;SDS011;65071;53.082;18.218;2024-01-30T01:49:04;34.60;;;14.50;;
75550;SDS011;65071;53.082;18.218;2024-01-30T01:51:33;34.20;;;15.10;;
75550;SDS011;65071;53.082;18.218;2024-01-30T01:54:03;38.60;;;14.70;;
75550;SDS011;65071;53.082;18.218;2024-01-30T01:56:30;36.00;;;14.50;;
75550;SDS011;65071;53.082;18.218;2024-01-30T01:59:00;34.50;;;12.90;;
75550;SDS011;65071;53.082;18.218;2024-01-30T02:01:31;34.80;;;13.50;;
75550;SDS011;65071;53.082;18.218;2024-01-30T02:03:59;33.40;;;14.40;;
75550;SDS011;65071;53.082;18.218;2024-01-30T02:06:27;34.40;;;14.00;;
75550;SDS011;65071;53.082;18.218;2024-01-30T02:08:54;29.60;;;12.50;;
75550;SDS011;65071;53.082;18.218;2024-01-30T02:11:22;36.50;;;14.10;;
75550;SDS011;65071;53.082;18.218;2024-01-30T02:13:49;35.10;;;14.20;;
75550;SDS011;65071;53.082;18.218;2024-01-30T02:16:16;30.90;;;12.90;;
75550;SDS011;65071;53.082;18.218;2024-01-30T02:18:46;29.70;;;12.80;;
75550;SDS011;65071;53.082;18.218;2024-01-30T02:21:15;33.00;;;13.20;;
75550;SDS011;65071;53.082;18.218;2024-01-30T02:23:43;27.40;;;12.10;;
75550;SDS011;65071;53.082;18.218;2024-01-30T02:26:10;29.90;;;12.50;;
75550;SDS011;65071;53.082;18.218;2024-01-30T02:28:38;29.10;;;12.90;;
75550;SDS011;65071;53.082;18.218;2024-01-30T02:31:05;33.60;;;13.50;;
75550;SDS011;65071;53.082;18.218;2024-01-30T02:33:32;31.60;;;12.90;;
75550;SDS011;65071;53.082;18.218;2024-01-30T02:35:58;33.60;;;13.60;;
75550;SDS011;65071;53.082;18.218;2024-01-30T02:38:25;28.80;;;12.10;;
75550;SDS011;65071;53.082;18.218;2024-01-30T02:40:53;29.10;;;12.90;;
75550;SDS011;65071;53.082;18.218;2024-01-30T02:43:19;32.20;;;12.80;;
75550;SDS011;65071;53.082;18.218;2024-01-30T02:45:46;31.20;;;13.40;;
75550;SDS011;65071;53.082;18.218;2024-01-30T02:48:13;32.40;;;12.60;;
75550;SDS011;65071;53.082;18.218;2024-01-30T02:50:40;29.10;;;13.10;;
75550;SDS011;65071;53.082;18.218;2024-01-30T02:53:06;33.00;;;13.10;;
75550;SDS011;65071;53.082;18.218;2024-01-30T02:55:33;28.70;;;12.80;;
75550;SDS011;65071;53.082;18.218;2024-01-30T02:57:59;29.20;;;12.40;;
75550;SDS011;65071;53.082;18.218;2024-01-30T03:00:26;24.30;;;10.10;;
75550;SDS011;65071;53.082;18.218;2024-01-30T03:02:53;22.50;;;10.00;;
75550;SDS011;65071;53.082;18.218;2024-01-30T03:05:19;20.80;;;8.10;;
75550;SDS011;65071;53.082;18.218;2024-01-30T03:07:46;31.30;;;12.30;;
75550;SDS011;65071;53.082;18.218;2024-01-30T03:10:13;29.20;;;12.00;;
75550;SDS011;65071;53.082;18.218;2024-01-30T03:12:39;29.80;;;12.10;;
75550;SDS011;65071;53.082;18.218;2024-01-30T03:15:06;28.10;;;12.60;;
75550;SDS011;65071;53.082;18.218;2024-01-30T03:17:33;25.00;;;10.40;;
75550;SDS011;65071;53.082;18.218;2024-01-30T03:19:59;34.40;;;13.70;;
75550;SDS011;65071;53.082;18.218;2024-01-30T03:22:26;31.50;;;12.00;;
75550;SDS011;65071;53.082;18.218;2024-01-30T03:24:53;32.10;;;12.20;;
75550;SDS011;65071;53.082;18.218;2024-01-30T03:27:19;31.20;;;12.70;;
75550;SDS011;65071;53.082;18.218;2024-01-30T03:29:46;44.30;;;15.40;;
75550;SDS011;65071;53.082;18.218;2024-01-30T03:32:13;44.90;;;15.60;;
75550;SDS011;65071;53.082;18.218;2024-01-30T03:34:39;41.00;;;16.40;;
75550;SDS011;65071;53.082;18.218;2024-01-30T03:37:06;40.70;;;14.80;;
75550;SDS011;65071;53.082;18.218;2024-01-30T03:39:33;34.90;;;14.00;;
75550;SDS011;65071;53.082;18.218;2024-01-30T03:41:59;43.10;;;15.60;;
75550;SDS011;65071;53.082;18.218;2024-01-30T03:44:26;38.90;;;14.90;;
75550;SDS011;65071;53.082;18.218;2024-01-30T03:46:53;40.80;;;14.60;;
75550;SDS011;65071;53.082;18.218;2024-01-30T03:49:19;34.20;;;14.00;;
75550;SDS011;65071;53.082;18.218;2024-01-30T03:51:46;35.20;;;14.10;;
75550;SDS011;65071;53.082;18.218;2024-01-30T03:54:13;52.00;;;16.20;;
75550;SDS011;65071;53.082;18.218;2024-01-30T03:56:40;74.60;;;21.60;;
75550;SDS011;65071;53.082;18.218;2024-01-30T03:59:07;135.70;;;36.00;;
75550;SDS011;65071;53.082;18.218;2024-01-30T04:01:33;91.40;;;26.50;;
75550;SDS011;65071;53.082;18.218;2024-01-30T04:04:00;167.90;;;39.90;;
75550;SDS011;65071;53.082;18.218;2024-01-30T04:06:27;141.00;;;35.40;;
75550;SDS011;65071;53.082;18.218;2024-01-30T04:08:53;173.80;;;41.70;;
75550;SDS011;65071;53.082;18.218;2024-01-30T04:11:20;147.00;;;34.40;;
75550;SDS011;65071;53.082;18.218;2024-01-30T04:13:46;203.50;;;44.90;;
75550;SDS011;65071;53.082;18.218;2024-01-30T04:16:20;262.80;;;56.70;;
75550;SDS011;65071;53.082;18.218;2024-01-30T04:18:48;235.10;;;50.50;;
75550;SDS011;65071;53.082;18.218;2024-01-30T04:21:15;189.80;;;44.90;;
75550;SDS011;65071;53.082;18.218;2024-01-30T04:23:41;185.70;;;42.20;;
75550;SDS011;65071;53.082;18.218;2024-01-30T04:26:08;204.80;;;45.80;;
75550;SDS011;65071;53.082;18.218;2024-01-30T04:28:34;195.80;;;42.90;;
75550;SDS011;65071;53.082;18.218;2024-01-30T04:31:01;147.40;;;36.00;;
75550;SDS011;65071;53.082;18.218;2024-01-30T04:33:27;149.50;;;33.60;;
75550;SDS011;65071;53.082;18.218;2024-01-30T04:35:54;137.90;;;30.60;;
75550;SDS011;65071;53.082;18.218;2024-01-30T04:38:20;125.70;;;31.80;;
75550;SDS011;65071;53.082;18.218;2024-01-30T04:40:46;139.40;;;33.80;;
75550;SDS011;65071;53.082;18.218;2024-01-30T04:43:13;131.70;;;31.30;;
75550;SDS011;65071;53.082;18.218;2024-01-30T04:45:41;134.00;;;32.70;;
75550;SDS011;65071;53.082;18.218;2024-01-30T04:48:07;132.00;;;32.90;;
75550;SDS011;65071;53.082;18.218;2024-01-30T04:50:33;145.10;;;35.40;;
75550;SDS011;65071;53.082;18.218;2024-01-30T04:53:00;130.90;;;31.10;;
75550;SDS011;65071;53.082;18.218;2024-01-30T04:55:27;118.20;;;28.90;;
75550;SDS011;65071;53.082;18.218;2024-01-30T04:57:53;91.20;;;22.50;;
75550;SDS011;65071;53.082;18.218;2024-01-30T05:00:20;102.90;;;27.30;;
75550;SDS011;65071;53.082;18.218;2024-01-30T05:02:46;99.90;;;24.60;;
75550;SDS011;65071;53.082;18.218;2024-01-30T05:05:12;88.90;;;26.60;;
75550;SDS011;65071;53.082;18.218;2024-01-30T05:07:40;86.80;;;25.70;;
75550;SDS011;65071;53.082;18.218;2024-01-30T05:10:07;83.30;;;24.30;;
75550;SDS011;65071;53.082;18.218;2024-01-30T05:12:34;85.00;;;24.80;;
75550;SDS011;65071;53.082;18.218;2024-01-30T05:15:00;82.10;;;23.70;;
75550;SDS011;65071;53.082;18.218;2024-01-30T05:17:27;72.30;;;21.70;;
75550;SDS011;65071;53.082;18.218;2024-01-30T05:19:54;76.00;;;23.00;;
75550;SDS011;65071;53.082;18.218;2024-01-30T05:22:20;62.90;;;21.40;;
75550;SDS011;65071;53.082;18.218;2024-01-30T05:24:47;65.70;;;21.00;;
75550;SDS011;65071;53.082;18.218;2024-01-30T05:27:13;67.90;;;21.10;;
75550;SDS011;65071;53.082;18.218;2024-01-30T05:29:40;67.80;;;21.90;;
75550;SDS011;65071;53.082;18.218;2024-01-30T05:32:10;83.10;;;24.70;;
75550;SDS011;65071;53.082;18.218;2024-01-30T05:34:37;81.70;;;24.70;;
75550;SDS011;65071;53.082;18.218;2024-01-30T05:37:03;76.70;;;23.40;;
75550;SDS011;65071;53.082;18.218;2024-01-30T05:39:29;70.30;;;23.10;;
75550;SDS011;65071;53.082;18.218;2024-01-30T05:41:59;71.80;;;22.80;;
75550;SDS011;65071;53.082;18.218;2024-01-30T05:44:25;67.40;;;21.10;;
75550;SDS011;65071;53.082;18.218;2024-01-30T05:46:52;65.00;;;21.30;;
75550;SDS011;65071;53.082;18.218;2024-01-30T05:49:18;49.30;;;16.90;;
75550;SDS011;65071;53.082;18.218;2024-01-30T05:51:44;56.60;;;20.40;;
75550;SDS011;65071;53.082;18.218;2024-01-30T05:54:10;57.70;;;19.40;;
75550;SDS011;65071;53.082;18.218;2024-01-30T05:56:37;51.30;;;17.40;;
75550;SDS011;65071;53.082;18.218;2024-01-30T05:59:03;56.50;;;19.90;;
75550;SDS011;65071;53.082;18.218;2024-01-30T06:01:29;51.80;;;17.70;;
75550;SDS011;65071;53.082;18.218;2024-01-30T06:03:55;51.30;;;17.60;;
75550;SDS011;65071;53.082;18.218;2024-01-30T06:06:22;54.10;;;18.30;;
75550;SDS011;65071;53.082;18.218;2024-01-30T06:08:48;47.80;;;17.20;;
75550;SDS011;65071;53.082;18.218;2024-01-30T06:11:14;52.20;;;19.90;;
75550;SDS011;65071;53.082;18.218;2024-01-30T06:13:40;46.30;;;17.70;;
75550;SDS011;65071;53.082;18.218;2024-01-30T06:16:09;48.90;;;18.50;;
75550;SDS011;65071;53.082;18.218;2024-01-30T06:18:37;44.60;;;17.60;;
75550;SDS011;65071;53.082;18.218;2024-01-30T06:21:04;45.90;;;18.20;;
75550;SDS011;65071;53.082;18.218;2024-01-30T06:23:31;44.90;;;17.30;;
75550;SDS011;65071;53.082;18.218;2024-01-30T06:25:57;40.40;;;15.50;;
75550;SDS011;65071;53.082;18.218;2024-01-30T06:28:23;38.60;;;15.70;;
75550;SDS011;65071;53.082;18.218;2024-01-30T06:30:50;38.30;;;16.00;;
75550;SDS011;65071;53.082;18.218;2024-01-30T06:33:16;35.70;;;14.40;;
75550;SDS011;65071;53.082;18.218;2024-01-30T06:35:43;41.30;;;15.00;;
75550;SDS011;65071;53.082;18.218;2024-01-30T06:38:11;37.60;;;14.40;;
75550;SDS011;65071;53.082;18.218;2024-01-30T06:40:39;33.80;;;13.60;;
75550;SDS011;65071;53.082;18.218;2024-01-30T06:43:05;34.00;;;13.10;;
75550;SDS011;65071;53.082;18.218;2024-01-30T06:45:31;27.20;;;11.90;;
75550;SDS011;65071;53.082;18.218;2024-01-30T06:47:57;27.20;;;11.80;;
75550;SDS011;65071;53.082;18.218;2024-01-30T06:50:24;29.50;;;12.70;;
75550;SDS011;65071;53.082;18.218;2024-01-30T06:52:51;30.30;;;13.00;;
75550;SDS011;65071;53.082;18.218;2024-01-30T06:55:18;28.40;;;13.50;;
75550;SDS011;65071;53.082;18.218;2024-01-30T06:57:44;31.30;;;13.10;;
75550;SDS011;65071;53.082;18.218;2024-01-30T07:00:11;28.00;;;12.30;;
75550;SDS011;65071;53.082;18.218;2024-01-30T07:02:38;29.30;;;13.00;;
75550;SDS011;65071;53.082;18.218;2024-01-30T07:05:04;30.00;;;12.70;;
75550;SDS011;65071;53.082;18.218;2024-01-30T07:07:30;20.30;;;8.60;;
75550;SDS011;65071;53.082;18.218;2024-01-30T07:09:57;30.70;;;11.80;;
75550;SDS011;65071;53.082;18.218;2024-01-30T07:12:23;25.00;;;11.40;;
75550;SDS011;65071;53.082;18.218;2024-01-30T07:14:51;26.00;;;11.50;;
75550;SDS011;65071;53.082;18.218;2024-01-30T07:17:18;23.70;;;10.00;;
75550;SDS011;65071;53.082;18.218;2024-01-30T07:19:44;28.80;;;13.30;;
75550;SDS011;65071;53.082;18.218;2024-01-30T07:22:11;33.50;;;13.90;;
75550;SDS011;65071;53.082;18.218;2024-01-30T07:24:41;31.50;;;14.00;;
75550;SDS011;65071;53.082;18.218;2024-01-30T07:27:11;27.60;;;13.30;;
75550;SDS011;65071;53.082;18.218;2024-01-30T07:29:37;28.00;;;12.60;;
75550;SDS011;65071;53.082;18.218;2024-01-30T07:32:03;32.10;;;14.50;;
75550;SDS011;65071;53.082;18.218;2024-01-30T07:34:30;30.50;;;12.70;;
75550;SDS011;65071;53.082;18.218;2024-01-30T07:36:56;34.20;;;14.70;;
75550;SDS011;65071;53.082;18.218;2024-01-30T07:39:23;38.10;;;15.90;;
75550;SDS011;65071;53.082;18.218;2024-01-30T07:41:49;42.80;;;17.40;;
75550;SDS011;65071;53.082;18.218;2024-01-30T07:44:16;39.90;;;17.50;;
75550;SDS011;65071;53.082;18.218;2024-01-30T07:46:42;35.40;;;15.60;;
75550;SDS011;65071;53.082;18.218;2024-01-30T07:49:09;27.40;;;12.10;;
75550;SDS011;65071;53.082;18.218;2024-01-30T07:51:36;28.10;;;13.00;;
75550;SDS011;65071;53.082;18.218;2024-01-30T07:54:03;28.00;;;13.00;;
75550;SDS011;65071;53.082;18.218;2024-01-30T07:56:29;24.90;;;11.90;;
75550;SDS011;65071;53.082;18.218;2024-01-30T07:58:55;27.10;;;11.70;;
75550;SDS011;65071;53.082;18.218;2024-01-30T08:01:21;28.20;;;12.90;;
75550;SDS011;65071;53.082;18.218;2024-01-30T08:03:48;27.60;;;12.40;;
75550;SDS011;65071;53.082;18.218;2024-01-30T08:06:14;25.90;;;11.20;;
75550;SDS011;65071;53.082;18.218;2024-01-30T08:08:41;26.70;;;11.90;;
75550;SDS011;65071;53.082;18.218;2024-01-30T08:11:07;32.00;;;14.40;;
75550;SDS011;65071;53.082;18.218;2024-01-30T08:13:34;30.30;;;12.60;;
75550;SDS011;65071;53.082;18.218;2024-01-30T08:16:00;27.30;;;11.50;;
75550;SDS011;65071;53.082;18.218;2024-01-30T08:18:27;22.10;;;10.80;;
75550;SDS011;65071;53.082;18.218;2024-01-30T08:20:53;26.20;;;11.90;;
75550;SDS011;65071;53.082;18.218;2024-01-30T08:23:20;25.20;;;11.30;;
75550;SDS011;65071;53.082;18.218;2024-01-30T08:25:46;24.60;;;11.60;;
75550;SDS011;65071;53.082;18.218;2024-01-30T08:28:12;20.70;;;10.60;;
75550;SDS011;65071;53.082;18.218;2024-01-30T08:30:39;23.20;;;10.40;;
75550;SDS011;65071;53.082;18.218;2024-01-30T08:33:06;21.80;;;10.70;;
75550;SDS011;65071;53.082;18.218;2024-01-30T08:35:32;22.70;;;10.90;;
75550;SDS011;65071;53.082;18.218;2024-01-30T08:37:59;26.80;;;12.40;;
75550;SDS011;65071;53.082;18.218;2024-01-30T08:40:26;25.80;;;11.30;;
75550;SDS011;65071;53.082;18.218;2024-01-30T08:42:52;26.40;;;12.80;;
75550;SDS011;65071;53.082;18.218;2024-01-30T08:45:18;29.40;;;13.10;;
75550;SDS011;65071;53.082;18.218;2024-01-30T08:47:45;26.00;;;11.80;;
75550;SDS011;65071;53.082;18.218;2024-01-30T08:50:11;19.70;;;9.60;;
75550;SDS011;65071;53.082;18.218;2024-01-30T08:52:37;22.60;;;11.30;;
75550;SDS011;65071;53.082;18.218;2024-01-30T08:55:04;23.10;;;11.40;;
75550;SDS011;65071;53.082;18.218;2024-01-30T08:57:30;21.40;;;10.60;;
75550;SDS011;65071;53.082;18.218;2024-01-30T08:59:57;22.20;;;11.00;;
75550;SDS011;65071;53.082;18.218;2024-01-30T09:02:23;20.80;;;11.20;;
75550;SDS011;65071;53.082;18.218;2024-01-30T09:04:50;20.30;;;9.90;;
75550;SDS011;65071;53.082;18.218;2024-01-30T09:07:17;22.10;;;10.00;;
75550;SDS011;65071;53.082;18.218;2024-01-30T09:09:44;21.30;;;11.10;;
75550;SDS011;65071;53.082;18.218;2024-01-30T09:12:10;19.30;;;10.00;;
75550;SDS011;65071;53.082;18.218;2024-01-30T09:14:37;21.40;;;9.50;;
75550;SDS011;65071;53.082;18.218;2024-01-30T09:17:06;23.10;;;11.30;;
75550;SDS011;65071;53.082;18.218;2024-01-30T09:19:32;19.40;;;10.40;;
75550;SDS011;65071;53.082;18.218;2024-01-30T09:21:59;17.80;;;8.80;;
75550;SDS011;65071;53.082;18.218;2024-01-30T09:24:26;18.00;;;9.20;;
75550;SDS011;65071;53.082;18.218;2024-01-30T09:26:52;17.30;;;9.20;;
75550;SDS011;65071;53.082;18.218;2024-01-30T09:29:19;17.20;;;8.50;;
75550;SDS011;65071;53.082;18.218;2024-01-30T09:31:45;15.40;;;7.40;;
75550;SDS011;65071;53.082;18.218;2024-01-30T09:34:12;18.40;;;8.90;;
75550;SDS011;65071;53.082;18.218;2024-01-30T09:36:40;16.10;;;8.00;;
75550;SDS011;65071;53.082;18.218;2024-01-30T09:39:06;17.70;;;8.60;;
75550;SDS011;65071;53.082;18.218;2024-01-30T09:41:33;19.70;;;9.40;;
75550;SDS011;65071;53.082;18.218;2024-01-30T09:44:08;20.00;;;9.20;;
75550;SDS011;65071;53.082;18.218;2024-01-30T09:46:35;25.40;;;11.60;;
75550;SDS011;65071;53.082;18.218;2024-01-30T09:49:02;24.50;;;10.60;;
75550;SDS011;65071;53.082;18.218;2024-01-30T09:51:29;20.90;;;10.40;;
75550;SDS011;65071;53.082;18.218;2024-01-30T09:53:56;21.20;;;9.60;;
75550;SDS011;65071;53.082;18.218;2024-01-30T09:56:23;17.40;;;9.40;;
75550;SDS011;65071;53.082;18.218;2024-01-30T09:58:52;17.70;;;8.50;;
75550;SDS011;65071;53.082;18.218;2024-01-30T10:01:19;18.50;;;8.60;;
75550;SDS011;65071;53.082;18.218;2024-01-30T10:03:46;14.70;;;8.20;;
75550;SDS011;65071;53.082;18.218;2024-01-30T10:06:13;14.10;;;7.00;;
75550;SDS011;65071;53.082;18.218;2024-01-30T10:08:59;16.90;;;8.20;;
75550;SDS011;65071;53.082;18.218;2024-01-30T10:11:26;14.70;;;7.30;;
75550;SDS011;65071;53.082;18.218;2024-01-30T10:13:52;16.50;;;7.30;;
75550;SDS011;65071;53.082;18.218;2024-01-30T10:16:19;15.10;;;7.70;;
75550;SDS011;65071;53.082;18.218;2024-01-30T10:18:46;12.70;;;7.00;;
75550;SDS011;65071;53.082;18.218;2024-01-30T10:21:12;14.80;;;7.90;;
75550;SDS011;65071;53.082;18.218;2024-01-30T10:23:39;14.60;;;7.60;;
75550;SDS011;65071;53.082;18.218;2024-01-30T10:26:07;13.40;;;6.90;;
75550;SDS011;65071;53.082;18.218;2024-01-30T10:28:33;17.70;;;7.30;;
75550;SDS011;65071;53.082;18.218;2024-01-30T10:31:00;15.70;;;7.70;;
75550;SDS011;65071;53.082;18.218;2024-01-30T10:33:27;17.70;;;8.00;;
75550;SDS011;65071;53.082;18.218;2024-01-30T10:35:55;17.80;;;7.80;;
75550;SDS011;65071;53.082;18.218;2024-01-30T10:38:28;11.10;;;5.80;;
75550;SDS011;65071;53.082;18.218;2024-01-30T10:40:57;9.90;;;5.00;;
75550;SDS011;65071;53.082;18.218;2024-01-30T10:43:27;15.70;;;7.90;;
75550;SDS011;65071;53.082;18.218;2024-01-30T10:46:01;15.40;;;7.50;;
75550;SDS011;65071;53.082;18.218;2024-01-30T10:48:47;12.80;;;6.70;;
75550;SDS011;65071;53.082;18.218;2024-01-30T10:51:22;7.60;;;4.50;;
75550;SDS011;65071;53.082;18.218;2024-01-30T10:53:48;14.70;;;6.50;;
75550;SDS011;65071;53.082;18.218;2024-01-30T10:56:15;11.40;;;5.40;;
75550;SDS011;65071;53.082;18.218;2024-01-30T10:58:42;11.60;;;7.00;;
75550;SDS011;65071;53.082;18.218;2024-01-30T11:01:08;16.90;;;7.10;;
75550;SDS011;65071;53.082;18.218;2024-01-30T11:03:35;13.60;;;7.20;;
75550;SDS011;65071;53.082;18.218;2024-01-30T11:06:02;15.40;;;8.20;;
75550;SDS011;65071;53.082;18.218;2024-01-30T11:08:31;13.80;;;7.30;;
75550;SDS011;65071;53.082;18.218;2024-01-30T11:10:58;18.30;;;9.60;;
75550;SDS011;65071;53.082;18.218;2024-01-30T11:13:28;13.10;;;6.90;;
75550;SDS011;65071;53.082;18.218;2024-01-30T11:16:00;13.90;;;7.20;;
75550;SDS011;65071;53.082;18.218;2024-01-30T11:18:29;9.30;;;4.20;;
75550;SDS011;65071;53.082;18.218;2024-01-30T11:20:57;13.40;;;6.20;;
75550;SDS011;65071;53.082;18.218;2024-01-30T11:23:25;15.30;;;7.40;;
75550;SDS011;65071;53.082;18.218;2024-01-30T11:25:53;23.90;;;8.40;;
75550;SDS011;65071;53.082;18.218;2024-01-30T11:28:23;14.40;;;7.20;;
75550;SDS011;65071;53.082;18.218;2024-01-30T11:30:49;16.30;;;7.60;;
75550;SDS011;65071;53.082;18.218;2024-01-30T11:33:27;13.80;;;6.80;;
75550;SDS011;65071;53.082;18.218;2024-01-30T11:35:58;13.80;;;6.80;;
75550;SDS011;65071;53.082;18.218;2024-01-30T11:38:33;17.90;;;8.20;;
75550;SDS011;65071;53.082;18.218;2024-01-30T11:40:59;9.00;;;4.80;;
75550;SDS011;65071;53.082;18.218;2024-01-30T11:43:27;13.50;;;7.00;;
75550;SDS011;65071;53.082;18.218;2024-01-30T11:45:53;12.80;;;6.20;;
75550;SDS011;65071;53.082;18.218;2024-01-30T11:48:23;12.10;;;7.00;;
75550;SDS011;65071;53.082;18.218;2024-01-30T11:50:49;13.20;;;7.20;;
75550;SDS011;65071;53.082;18.218;2024-01-30T11:53:17;15.60;;;7.10;;
75550;SDS011;65071;53.082;18.218;2024-01-30T11:55:49;13.30;;;7.40;;
75550;SDS011;65071;53.082;18.218;2024-01-30T11:58:16;10.80;;;5.10;;
75550;SDS011;65071;53.082;18.218;2024-01-30T12:00:42;13.70;;;7.70;;
75550;SDS011;65071;53.082;18.218;2024-01-30T12:03:09;17.00;;;8.20;;
75550;SDS011;65071;53.082;18.218;2024-01-30T12:05:37;17.00;;;7.30;;
75550;SDS011;65071;53.082;18.218;2024-01-30T12:08:14;17.10;;;8.50;;
75550;SDS011;65071;53.082;18.218;2024-01-30T12:10:42;14.80;;;8.00;;
75550;SDS011;65071;53.082;18.218;2024-01-30T12:13:08;14.80;;;6.30;;
75550;SDS011;65071;53.082;18.218;2024-01-30T12:15:34;18.00;;;7.50;;
75550;SDS011;65071;53.082;18.218;2024-01-30T12:18:05;14.50;;;8.10;;
75550;SDS011;65071;53.082;18.218;2024-01-30T12:20:32;12.50;;;7.10;;
75550;SDS011;65071;53.082;18.218;2024-01-30T12:22:59;8.10;;;4.60;;
75550;SDS011;65071;53.082;18.218;2024-01-30T12:25:25;9.30;;;5.40;;
75550;SDS011;65071;53.082;18.218;2024-01-30T12:27:52;9.10;;;4.20;;
75550;SDS011;65071;53.082;18.218;2024-01-30T12:30:19;11.50;;;5.40;;
75550;SDS011;65071;53.082;18.218;2024-01-30T12:32:46;12.30;;;6.70;;
75550;SDS011;65071;53.082;18.218;2024-01-30T12:35:15;13.90;;;7.80;;
75550;SDS011;65071;53.082;18.218;2024-01-30T12:37:43;11.20;;;6.30;;
75550;SDS011;65071;53.082;18.218;2024-01-30T12:40:11;16.40;;;8.90;;
75550;SDS011;65071;53.082;18.218;2024-01-30T12:42:41;17.70;;;9.00;;
75550;SDS011;65071;53.082;18.218;2024-01-30T12:45:09;17.30;;;8.80;;
75550;SDS011;65071;53.082;18.218;2024-01-30T12:47:36;18.30;;;8.90;;
75550;SDS011;65071;53.082;18.218;2024-01-30T12:50:02;18.20;;;8.60;;
75550;SDS011;65071;53.082;18.218;2024-01-30T12:52:29;17.30;;;8.80;;
75550;SDS011;65071;53.082;18.218;2024-01-30T12:54:55;17.70;;;9.10;;
75550;SDS011;65071;53.082;18.218;2024-01-30T12:57:21;17.50;;;8.50;;
75550;SDS011;65071;53.082;18.218;2024-01-30T12:59:48;18.90;;;7.90;;
75550;SDS011;65071;53.082;18.218;2024-01-30T13:02:15;15.10;;;8.10;;
75550;SDS011;65071;53.082;18.218;2024-01-30T13:04:42;17.00;;;7.50;;
75550;SDS011;65071;53.082;18.218;2024-01-30T13:07:08;16.60;;;8.20;;
75550;SDS011;65071;53.082;18.218;2024-01-30T13:09:35;15.20;;;8.10;;
75550;SDS011;65071;53.082;18.218;2024-01-30T13:12:03;15.40;;;8.10;;
75550;SDS011;65071;53.082;18.218;2024-01-30T13:14:29;16.10;;;8.20;;
75550;SDS011;65071;53.082;18.218;2024-01-30T13:16:56;14.50;;;7.40;;
75550;SDS011;65071;53.082;18.218;2024-01-30T13:19:22;18.30;;;9.20;;
75550;SDS011;65071;53.082;18.218;2024-01-30T13:21:49;15.80;;;8.30;;
75550;SDS011;65071;53.082;18.218;2024-01-30T13:24:15;17.80;;;8.60;;
75550;SDS011;65071;53.082;18.218;2024-01-30T13:26:42;17.00;;;8.50;;
75550;SDS011;65071;53.082;18.218;2024-01-30T13:29:09;15.60;;;8.10;;
75550;SDS011;65071;53.082;18.218;2024-01-30T13:31:36;16.30;;;8.70;;
75550;SDS011;65071;53.082;18.218;2024-01-30T13:34:02;19.90;;;9.70;;
75550;SDS011;65071;53.082;18.218;2024-01-30T13:36:29;19.60;;;9.10;;
75550;SDS011;65071;53.082;18.218;2024-01-30T13:38:55;14.30;;;6.90;;
75550;SDS011;65071;53.082;18.218;2024-01-30T13:41:21;17.20;;;9.40;;
75550;SDS011;65071;53.082;18.218;2024-01-30T13:43:49;16.80;;;8.80;;
75550;SDS011;65071;53.082;18.218;2024-01-30T13:46:15;16.50;;;7.70;;
75550;SDS011;65071;53.082;18.218;2024-01-30T13:48:42;14.10;;;8.00;;
75550;SDS011;65071;53.082;18.218;2024-01-30T13:51:08;18.80;;;10.00;;
75550;SDS011;65071;53.082;18.218;2024-01-30T13:53:35;20.60;;;11.00;;
75550;SDS011;65071;53.082;18.218;2024-01-30T13:56:01;23.00;;;10.70;;
75550;SDS011;65071;53.082;18.218;2024-01-30T13:58:28;22.80;;;11.70;;
75550;SDS011;65071;53.082;18.218;2024-01-30T14:00:54;25.10;;;11.60;;
75550;SDS011;65071;53.082;18.218;2024-01-30T14:03:21;23.50;;;11.90;;
75550;SDS011;65071;53.082;18.218;2024-01-30T14:05:48;23.80;;;11.90;;
75550;SDS011;65071;53.082;18.218;2024-01-30T14:08:14;26.00;;;12.20;;
75550;SDS011;65071;53.082;18.218;2024-01-30T14:10:41;23.20;;;12.00;;